createdAt,value
2019-02-08T00:04:58.542Z,6.31
2019-02-08T00:07:26.941Z,6.34
2019-02-08T00:09:53.588Z,6.24
2019-02-08T00:12:21.957Z,6.30
2019-02-08T00:15:09.588Z,6.20
2019-02-08T00:17:39.679Z,6.11
2019-02-08T00:20:47.966Z,6.28
2019-02-08T00:23:26.319Z,6.32
2019-02-08T00:25:46.522Z,6.10
2019-02-08T00:28:34.150Z,6.21
2019-02-08T00:33:57.507Z,6.17
2019-02-08T00:36:25.894Z,6.13
2019-02-08T00:38:54.271Z,6.07
2019-02-08T00:41:22.658Z,6.11
2019-02-08T00:44:10.152Z,6.17
2019-02-08T00:46:38.545Z,6.34
2019-02-08T00:49:06.920Z,6.36
2019-02-08T00:51:54.658Z,6.47
2019-02-08T00:54:23.049Z,6.56
2019-02-08T00:56:51.612Z,6.47
2019-02-08T00:59:19.987Z,6.40
2019-02-08T01:02:08.926Z,6.41
2019-02-08T01:04:37.579Z,6.52
2019-02-08T01:07:05.964Z,6.47
2019-02-08T01:09:36.059Z,6.46
2019-02-08T01:12:44.347Z,6.36
2019-02-08T01:15:52.638Z,6.21
2019-02-08T01:18:21.011Z,6.23
2019-02-08T01:20:49.397Z,6.15
2019-02-08T01:23:17.775Z,6.15
2019-02-08T01:25:46.160Z,6.06
2019-02-08T01:28:14.536Z,6.10
2019-02-08T01:31:02.333Z,6.04
2019-02-08T01:33:49.969Z,6.25
2019-02-08T01:36:37.599Z,6.21
2019-02-08T01:39:45.886Z,6.28
2019-02-08T01:42:14.266Z,6.36
2019-02-08T01:45:01.983Z,6.33
2019-02-08T01:47:30.372Z,6.36
2019-02-08T01:49:58.746Z,6.43
2019-02-08T01:52:46.248Z,6.45
2019-02-08T01:55:54.530Z,6.34
2019-02-08T01:58:22.916Z,6.37
2019-02-08T02:01:10.640Z,6.27
2019-02-08T02:03:58.140Z,6.32
2019-02-08T02:06:26.522Z,6.43
2019-02-08T02:08:54.900Z,6.40
2019-02-08T02:12:03.216Z,6.49
2019-02-08T02:14:31.598Z,6.51
2019-02-08T02:17:39.904Z,6.53
2019-02-08T02:20:48.188Z,6.50
2019-02-08T02:23:35.983Z,6.64
2019-02-08T02:28:58.819Z,6.60
2019-02-08T02:31:46.320Z,6.77
2019-02-08T02:34:33.811Z,6.79
2019-02-08T02:37:02.210Z,7.07
2019-02-08T02:39:49.699Z,6.95
2019-02-08T02:44:52.478Z,6.90
2019-02-08T02:47:40.109Z,6.75
2019-02-08T02:50:48.397Z,6.75
2019-02-08T02:55:50.784Z,6.80
2019-02-08T02:58:38.421Z,6.71
2019-02-08T03:01:46.963Z,6.71
2019-02-08T03:09:36.719Z,6.88
2019-02-08T03:12:05.110Z,6.81
2019-02-08T03:19:54.587Z,6.80
2019-02-08T03:22:42.226Z,6.71
2019-02-08T03:25:50.509Z,6.85
2019-02-08T03:33:32.390Z,6.72
2019-02-08T03:36:20.011Z,6.85
2019-02-08T03:38:48.396Z,6.83
2019-02-08T03:41:36.038Z,6.99
2019-02-08T03:44:44.331Z,6.83
2019-02-08T03:47:32.206Z,6.77
2019-02-08T03:50:19.817Z,6.69
2019-02-08T03:56:01.570Z,6.73
2019-02-08T04:01:23.162Z,6.70
2019-02-08T04:04:10.864Z,6.82
2019-02-08T04:07:19.167Z,6.81
2019-02-08T04:09:47.548Z,6.71
2019-02-08T04:12:35.044Z,6.72
2019-02-08T04:15:43.327Z,6.66
2019-02-08T04:18:11.707Z,6.76
2019-02-08T04:20:40.084Z,6.66
2019-02-08T04:23:48.376Z,6.65
2019-02-08T04:26:16.747Z,6.77
2019-02-08T04:29:04.248Z,6.88
2019-02-08T04:31:51.877Z,6.81
2019-02-08T04:34:20.261Z,6.62
2019-02-08T04:37:07.896Z,6.81
2019-02-08T04:39:36.272Z,6.73
2019-02-08T04:42:23.896Z,6.71
2019-02-08T04:45:11.532Z,6.63
2019-02-08T04:47:59.031Z,6.67
2019-02-08T04:51:07.316Z,6.69
2019-02-08T04:54:15.603Z,6.65
2019-02-08T04:56:43.971Z,6.64
2019-02-08T04:59:12.362Z,6.64
2019-02-08T05:01:59.849Z,6.56
2019-02-08T05:04:28.230Z,6.56
2019-02-08T05:06:56.606Z,6.42
2019-02-08T05:09:37.052Z,6.41
2019-02-08T05:12:45.353Z,6.42
2019-02-08T05:15:53.654Z,6.35
2019-02-08T05:18:22.029Z,6.21
2019-02-08T05:21:09.564Z,6.11
2019-02-08T05:23:37.987Z,6.18
2019-02-08T05:26:25.765Z,6.02
2019-02-08T05:28:54.222Z,6.03
2019-02-08T05:31:22.592Z,6.04
2019-02-08T05:33:51.675Z,6.00
2019-02-08T05:36:21.178Z,6.09
2019-02-08T05:38:49.632Z,6.10
2019-02-08T05:41:37.269Z,6.10
2019-02-08T05:44:05.759Z,6.24
2019-02-08T05:46:53.375Z,6.26
2019-02-08T05:49:41.058Z,6.29
2019-02-08T05:52:28.550Z,6.25
2019-02-08T05:55:16.126Z,6.22
2019-02-08T05:57:44.487Z,6.11
2019-02-08T06:00:52.795Z,6.21
2019-02-08T06:04:01.084Z,6.31
2019-02-08T06:06:29.471Z,6.16
2019-02-08T06:08:57.920Z,6.24
2019-02-08T06:17:08.555Z,6.35
2019-02-08T06:19:37.140Z,6.25
2019-02-08T06:22:45.426Z,6.28
2019-02-08T06:28:27.073Z,6.74
2019-02-08T06:30:55.478Z,6.56
2019-02-08T06:33:23.895Z,6.46
2019-02-08T06:36:11.567Z,6.61
2019-02-08T06:38:39.980Z,6.62
2019-02-08T06:41:08.391Z,6.59
2019-02-08T06:43:36.834Z,6.62
2019-02-08T06:46:05.233Z,6.76
2019-02-08T06:51:21.095Z,6.50
2019-02-08T06:54:08.864Z,6.66
2019-02-08T06:56:56.508Z,6.61
2019-02-08T06:59:44.145Z,6.62
2019-02-08T07:02:31.663Z,6.60
2019-02-08T07:10:50.796Z,6.66
2019-02-08T07:13:38.302Z,6.78
2019-02-08T07:16:45.164Z,6.81
2019-02-08T07:25:40.949Z,6.83
2019-02-08T07:31:17.533Z,6.86
2019-02-08T07:34:05.045Z,6.98
2019-02-08T07:40:07.722Z,6.88
2019-02-08T07:43:16.015Z,6.85
2019-02-08T07:46:24.303Z,6.91
2019-02-08T07:49:32.585Z,6.77
2019-02-08T07:58:13.826Z,7.07
2019-02-08T08:01:22.120Z,7.15
2019-02-08T08:04:30.403Z,7.28
2019-02-08T08:07:38.697Z,7.15
2019-02-08T08:10:46.983Z,7.06
2019-02-08T08:16:42.547Z,7.12
2019-02-08T08:19:50.827Z,6.98
2019-02-08T08:22:59.124Z,6.97
2019-02-08T08:26:07.653Z,7.07
2019-02-08T08:32:05.020Z,7.24
2019-02-08T08:35:13.376Z,7.26
2019-02-08T08:38:20.342Z,7.24
2019-02-08T08:41:27.548Z,7.32
2019-02-08T08:44:34.741Z,7.52
2019-02-08T08:47:43.272Z,7.48
2019-02-08T08:50:51.614Z,7.27
2019-02-08T08:53:58.574Z,7.29
2019-02-08T08:57:06.862Z,7.17
2019-02-08T09:00:13.816Z,7.20
2019-02-08T09:03:21.586Z,7.11
2019-02-08T09:06:29.871Z,7.09
2019-02-08T09:09:36.837Z,7.07
2019-02-08T09:12:43.806Z,7.16
2019-02-08T09:15:52.087Z,6.99
2019-02-08T09:18:59.053Z,7.08
2019-02-08T09:22:06.022Z,7.10
2019-02-08T09:25:12.972Z,7.15
2019-02-08T09:28:21.322Z,7.36
2019-02-08T09:31:29.676Z,7.24
2019-02-08T09:34:36.634Z,7.40
2019-02-08T09:37:44.983Z,7.42
2019-02-08T09:40:51.943Z,7.46
2019-02-08T09:43:58.912Z,7.35
2019-02-08T09:47:07.250Z,7.40
2019-02-08T09:50:14.210Z,7.48
2019-02-08T09:53:22.527Z,7.56
2019-02-08T09:56:29.526Z,7.61
2019-02-08T09:59:36.520Z,7.52
2019-02-08T10:02:43.509Z,7.68
2019-02-08T10:05:50.505Z,7.68
2019-02-08T10:08:58.890Z,7.77
2019-02-08T10:12:05.857Z,7.87
2019-02-08T10:15:12.826Z,7.83
2019-02-08T10:18:21.194Z,7.80
2019-02-08T10:21:28.156Z,8.00
2019-02-08T10:24:35.129Z,7.88
2019-02-08T10:27:43.431Z,7.95
2019-02-08T10:30:50.433Z,8.07
2019-02-08T10:33:58.743Z,8.05
2019-02-08T10:37:05.714Z,8.12
2019-02-08T10:40:12.683Z,8.36
2019-02-08T10:43:19.676Z,8.31
2019-02-08T10:46:26.635Z,8.38
2019-02-08T10:49:34.937Z,8.48
2019-02-08T10:52:43.329Z,8.43
2019-02-08T10:55:50.318Z,8.48
2019-02-08T10:58:57.308Z,8.46
2019-02-08T11:02:04.323Z,8.53
2019-02-08T11:05:11.313Z,8.57
2019-02-08T11:08:18.295Z,8.62
2019-02-08T11:11:26.826Z,8.75
2019-02-08T11:14:35.155Z,8.72
2019-02-08T11:17:42.122Z,8.81
2019-02-08T11:20:50.438Z,8.88
2019-02-08T11:23:38.080Z,8.87
2019-02-08T11:26:46.380Z,8.66
2019-02-08T11:29:54.675Z,8.84
2019-02-08T11:32:23.045Z,8.93
2019-02-08T11:35:10.669Z,8.92
2019-02-08T11:37:39.040Z,8.91
2019-02-08T11:40:47.471Z,8.93
2019-02-08T11:43:15.842Z,9.04
2019-02-08T11:46:03.490Z,9.11
2019-02-08T11:48:31.917Z,9.09
2019-02-08T11:51:00.373Z,8.92
2019-02-08T11:56:17.838Z,9.24
2019-02-08T11:59:05.455Z,9.40
2019-02-08T12:02:13.983Z,9.20
2019-02-08T12:07:40.364Z,9.15
2019-02-08T12:10:48.670Z,8.97
2019-02-08T12:13:17.036Z,9.15
2019-02-08T12:16:04.662Z,9.15
2019-02-08T12:21:20.786Z,9.05
2019-02-08T12:23:49.171Z,8.99
2019-02-08T12:26:17.542Z,8.92
2019-02-08T12:28:45.917Z,8.78
2019-02-08T12:31:33.546Z,8.82
2019-02-08T12:34:01.920Z,8.94
2019-02-08T12:36:30.307Z,9.01
2019-02-08T12:39:18.022Z,8.95
2019-02-08T12:41:46.419Z,9.09
2019-02-08T12:44:14.773Z,8.95
2019-02-08T12:47:02.403Z,8.99
2019-02-08T12:49:30.777Z,9.02
2019-02-08T12:51:59.170Z,9.05
2019-02-08T12:54:27.528Z,9.19
2019-02-08T12:56:55.926Z,9.18
2019-02-08T12:59:24.273Z,9.26
2019-02-08T13:02:11.993Z,9.33
2019-02-08T13:04:40.370Z,9.23
2019-02-08T13:07:10.306Z,9.33
2019-02-08T13:09:58.077Z,9.42
2019-02-08T13:13:06.361Z,9.38
2019-02-08T13:15:34.775Z,9.57
2019-02-08T13:18:03.143Z,9.50
2019-02-08T13:20:31.507Z,9.67
2019-02-08T13:22:59.893Z,9.72
2019-02-08T13:25:28.277Z,9.85
2019-02-08T13:27:56.655Z,9.71
2019-02-08T13:31:04.948Z,9.67
2019-02-08T13:33:33.317Z,9.72
2019-02-08T13:36:20.819Z,9.71
2019-02-08T13:38:49.177Z,9.72
2019-02-08T13:41:17.556Z,9.70
2019-02-08T13:43:45.922Z,9.65
2019-02-08T13:46:14.291Z,9.82
2019-02-08T13:48:42.657Z,9.63
2019-02-08T13:51:11.033Z,9.68
2019-02-08T13:53:39.396Z,9.80
2019-02-08T13:58:55.199Z,9.71
2019-02-08T14:01:23.582Z,9.76
2019-02-08T14:03:51.949Z,9.74
2019-02-08T14:06:39.573Z,9.80
2019-02-08T14:09:47.852Z,9.71
2019-02-08T14:12:35.478Z,9.67
2019-02-08T14:15:43.760Z,9.59
2019-02-08T14:18:31.380Z,9.69
2019-02-08T14:20:59.746Z,9.48
2019-02-08T14:23:47.370Z,9.35
2019-02-08T14:26:15.759Z,9.32
2019-02-08T14:28:44.113Z,9.25
2019-02-08T14:31:31.605Z,9.14
2019-02-08T14:33:59.981Z,9.06
2019-02-08T14:36:47.592Z,8.93
2019-02-08T14:39:35.145Z,8.80
2019-02-08T14:44:58.360Z,8.85
2019-02-08T14:47:46.080Z,8.80
2019-02-08T14:53:21.229Z,8.45
2019-02-08T14:55:49.600Z,8.34
2019-02-08T14:58:37.177Z,8.22
2019-02-08T15:01:24.803Z,8.12
2019-02-08T15:04:12.424Z,8.21
2019-02-08T15:07:00.041Z,8.21
2019-02-08T15:09:28.426Z,8.19
2019-02-08T15:12:16.110Z,8.15
2019-02-08T15:14:44.481Z,8.15
2019-02-08T15:17:32.098Z,7.99
2019-02-08T15:20:19.695Z,8.13
2019-02-08T15:22:48.150Z,8.23
2019-02-08T15:25:56.424Z,8.16
2019-02-08T15:28:24.838Z,8.12
2019-02-08T15:31:12.369Z,8.00
2019-02-08T15:33:40.748Z,7.92
2019-02-08T15:36:28.229Z,7.94
2019-02-08T15:39:15.720Z,7.88
2019-02-08T15:42:03.206Z,7.95
2019-02-08T15:44:31.586Z,7.92
2019-02-08T15:47:19.269Z,7.97
2019-02-08T15:50:27.565Z,7.99
2019-02-08T15:56:23.301Z,7.91
2019-02-08T15:58:51.702Z,8.05
2019-02-08T16:01:39.414Z,7.93
2019-02-08T16:04:26.907Z,7.85
2019-02-08T16:09:42.714Z,7.89
2019-02-08T16:12:11.079Z,7.97
2019-02-08T16:17:33.724Z,7.94
2019-02-08T16:20:02.111Z,7.79
2019-02-08T16:22:50.085Z,7.80
2019-02-08T16:25:37.805Z,7.80
2019-02-08T16:28:06.247Z,7.82
2019-02-08T16:31:14.539Z,7.73
2019-02-08T16:33:42.908Z,7.77
2019-02-08T16:36:11.354Z,7.82
2019-02-08T16:38:39.725Z,7.79
2019-02-08T16:41:27.365Z,7.78
2019-02-08T16:44:35.651Z,7.89
2019-02-08T16:50:51.992Z,7.90
2019-02-08T16:53:20.360Z,7.92
2019-02-08T16:56:07.978Z,7.94
2019-02-08T16:58:55.545Z,8.02
2019-02-08T17:01:43.156Z,8.02
2019-02-08T17:04:11.524Z,8.10
2019-02-08T17:06:39.899Z,8.01
2019-02-08T17:09:48.199Z,8.05
2019-02-08T17:12:16.569Z,8.02
2019-02-08T17:15:04.063Z,8.01
2019-02-08T17:17:32.439Z,8.01
2019-02-08T17:22:34.689Z,8.06
2019-02-08T17:25:03.052Z,8.03
2019-02-08T17:27:55.256Z,7.98
2019-02-08T17:31:00.554Z,8.03
2019-02-08T17:39:10.217Z,8.08
2019-02-08T17:41:38.872Z,8.02
2019-02-08T17:44:07.245Z,7.98
2019-02-08T17:46:54.884Z,8.05
2019-02-08T17:49:42.369Z,8.07
2019-02-08T17:52:29.869Z,8.02
2019-02-08T17:55:17.348Z,8.18
2019-02-08T17:57:45.724Z,8.19
2019-02-08T18:00:53.635Z,8.22
2019-02-08T18:03:41.125Z,8.12
2019-02-08T18:06:09.500Z,8.17
2019-02-08T18:08:37.869Z,8.13
2019-02-08T18:14:38.387Z,8.30
2019-02-08T18:17:06.764Z,8.26
2019-02-08T18:19:35.143Z,8.30
2019-02-08T18:24:58.228Z,8.35
2019-02-08T18:27:26.613Z,8.37
2019-02-08T18:29:54.975Z,8.40
2019-02-08T18:32:42.473Z,8.48
2019-02-08T18:35:29.956Z,8.37
2019-02-08T18:38:38.250Z,8.44
2019-02-08T18:41:06.624Z,8.44
2019-02-08T18:43:34.998Z,8.47
2019-02-08T18:46:22.712Z,8.50
2019-02-08T18:48:51.077Z,8.53
2019-02-08T18:51:38.580Z,8.51
2019-02-08T18:54:06.959Z,8.50
2019-02-08T18:56:35.333Z,8.62
2019-02-08T18:59:03.722Z,8.73
2019-02-08T19:01:51.326Z,8.50
2019-02-08T19:04:38.832Z,8.60
2019-02-08T19:07:07.210Z,8.71
2019-02-08T19:09:35.577Z,8.78
2019-02-08T19:12:23.078Z,8.56
2019-02-08T19:17:58.149Z,8.59
2019-02-08T19:21:06.430Z,8.62
2019-02-08T19:23:34.805Z,8.64
2019-02-08T19:26:03.173Z,8.62
2019-02-08T19:28:31.540Z,8.59
2019-02-08T19:34:06.464Z,8.71
2019-02-08T19:36:53.945Z,8.64
2019-02-08T19:39:22.316Z,8.56
2019-02-08T19:42:09.942Z,8.60
2019-02-08T19:44:38.327Z,8.57
2019-02-08T19:47:06.691Z,8.51
2019-02-08T19:49:54.403Z,8.58
2019-02-08T19:52:41.897Z,8.56
2019-02-08T19:55:50.179Z,8.55
2019-02-08T19:58:18.557Z,8.45
2019-02-08T20:03:34.374Z,8.58
2019-02-08T20:06:21.988Z,8.58
2019-02-08T20:11:45.261Z,8.54
2019-02-08T20:14:32.856Z,8.57
2019-02-08T20:17:20.343Z,8.47
2019-02-08T20:19:48.722Z,8.52
2019-02-08T20:25:46.324Z,8.58
2019-02-08T20:28:14.937Z,8.63
2019-02-08T20:33:32.385Z,8.56
2019-02-08T20:36:19.995Z,8.44
2019-02-08T20:39:07.491Z,8.45
2019-02-08T20:41:55.109Z,8.51
2019-02-08T20:44:23.796Z,8.50
2019-02-08T20:46:52.165Z,8.45
2019-02-08T20:49:39.815Z,8.54
2019-02-08T20:52:08.450Z,8.56
2019-02-08T20:54:56.076Z,8.54
2019-02-08T20:57:24.445Z,8.56
2019-02-08T21:00:11.938Z,8.62
2019-02-08T21:02:40.308Z,8.64
2019-02-08T21:05:28.017Z,8.76
2019-02-08T21:08:15.632Z,8.59
2019-02-08T21:10:44.138Z,8.64
2019-02-08T21:13:31.701Z,8.62
2019-02-08T21:16:00.090Z,8.65
2019-02-08T21:21:21.360Z,8.73
2019-02-08T21:24:08.861Z,8.83
2019-02-08T21:26:37.229Z,8.77
2019-02-08T21:29:24.947Z,8.77
2019-02-08T21:31:53.312Z,8.73
2019-02-08T21:34:40.808Z,8.70
2019-02-08T21:37:28.291Z,8.68
2019-02-08T21:39:56.664Z,8.65
2019-02-08T21:42:25.032Z,8.65
2019-02-08T21:44:53.407Z,8.69
2019-02-08T21:47:21.771Z,8.64
2019-02-08T21:49:50.145Z,8.69
2019-02-08T21:55:45.881Z,8.82
2019-02-08T21:58:33.485Z,8.72
2019-02-08T22:01:01.905Z,8.75
2019-02-08T22:03:49.386Z,8.68
2019-02-08T22:06:18.076Z,8.70
2019-02-08T22:08:46.440Z,8.73
2019-02-08T22:11:34.173Z,8.76
2019-02-08T22:14:02.541Z,8.83
2019-02-08T22:19:05.572Z,8.83
2019-02-08T22:21:33.942Z,8.85
2019-02-08T22:24:21.556Z,8.94
2019-02-08T22:26:49.936Z,8.95
2019-02-08T22:29:37.420Z,8.94
2019-02-08T22:35:00.957Z,8.90
2019-02-08T22:37:48.832Z,8.95
2019-02-08T22:40:57.130Z,8.83
2019-02-08T22:43:25.493Z,8.72
2019-02-08T22:45:53.877Z,8.78
2019-02-08T22:48:22.245Z,8.83
2019-02-08T22:51:09.737Z,8.79
2019-02-08T22:53:38.104Z,8.74
2019-02-08T22:56:06.484Z,8.77
2019-02-08T22:58:34.855Z,8.74
2019-02-08T23:01:43.187Z,8.79
2019-02-08T23:04:11.632Z,8.80
2019-02-08T23:06:59.126Z,8.87
2019-02-08T23:09:27.497Z,8.83
2019-02-08T23:12:14.995Z,8.84
2019-02-08T23:15:02.615Z,8.79
2019-02-08T23:17:30.992Z,8.75
2019-02-08T23:19:59.360Z,8.80
2019-02-08T23:22:27.732Z,8.80
2019-02-08T23:24:56.095Z,8.79
2019-02-08T23:27:43.722Z,8.82
2019-02-08T23:30:52.012Z,8.88
2019-02-08T23:34:00.304Z,8.78
2019-02-08T23:36:47.928Z,8.83
2019-02-08T23:39:16.294Z,8.81
2019-02-08T23:41:44.779Z,8.81
2019-02-08T23:44:32.385Z,8.91
2019-02-08T23:47:19.883Z,8.91
2019-02-08T23:49:48.243Z,8.82
2019-02-08T23:52:16.618Z,8.79
2019-02-08T23:55:04.467Z,8.82
2019-02-08T23:57:32.863Z,8.74
